createdAt,value
2022-08-27T00:00:19.731Z,98004.78
2022-08-27T00:02:47.099Z,97958.00
2022-08-27T00:05:15.928Z,97921.34
2022-08-27T00:07:43.494Z,97921.69
2022-08-27T00:10:14.839Z,97894.09
2022-08-27T00:12:42.093Z,97931.16
2022-08-27T00:15:09.417Z,97939.72
2022-08-27T00:17:39.332Z,97960.72
2022-08-27T00:20:06.727Z,97952.41
2022-08-27T00:22:33.421Z,97918.72
2022-08-27T00:25:00.107Z,97930.25
2022-08-27T00:27:27.051Z,97918.94
2022-08-27T00:29:53.701Z,97913.59
2022-08-27T00:32:20.377Z,97939.31
2022-08-27T00:34:47.045Z,97955.31
2022-08-27T00:37:13.899Z,97941.28
2022-08-27T00:39:40.564Z,97908.38
2022-08-27T00:42:07.929Z,97939.31
2022-08-27T00:44:34.740Z,97950.41
2022-08-27T00:47:06.967Z,97970.16
2022-08-27T00:49:42.847Z,97998.00
2022-08-27T00:52:29.007Z,97907.91
2022-08-27T00:55:08.500Z,97947.19
2022-08-27T00:57:38.111Z,97955.00
2022-08-27T01:00:08.138Z,98013.53
2022-08-27T01:02:35.145Z,97971.28
2022-08-27T01:05:12.023Z,98002.84
2022-08-27T01:07:43.223Z,98012.91
2022-08-27T01:10:18.052Z,97995.25
2022-08-27T01:12:45.404Z,97969.50
2022-08-27T01:15:21.737Z,97958.25
2022-08-27T01:17:49.229Z,97965.78
2022-08-27T01:20:20.982Z,97957.66
2022-08-27T01:23:00.446Z,97960.38
2022-08-27T01:25:28.180Z,97963.69
2022-08-27T01:27:58.905Z,97942.38
2022-08-27T01:30:25.970Z,97966.75
2022-08-27T01:32:53.559Z,98020.19
2022-08-27T01:35:21.468Z,98010.28
2022-08-27T01:37:52.445Z,98012.47
2022-08-27T01:40:19.578Z,97985.00
2022-08-27T01:42:50.214Z,98033.06
2022-08-27T01:48:12.156Z,97962.22
2022-08-27T01:50:40.668Z,97986.53
2022-08-27T01:53:11.814Z,98036.56
2022-08-27T01:55:40.372Z,98026.13
2022-08-27T01:58:10.389Z,97962.97
2022-08-27T02:00:44.614Z,97984.91
2022-08-27T02:03:12.386Z,98001.25
2022-08-27T02:05:44.998Z,97983.97
2022-08-27T02:08:13.532Z,98001.06
2022-08-27T02:10:40.454Z,97984.63
2022-08-27T02:13:07.984Z,97986.84
2022-08-27T02:15:35.870Z,97937.84
2022-08-27T02:18:05.616Z,98020.84
2022-08-27T02:20:32.830Z,97994.75
2022-08-27T02:22:59.684Z,98011.81
2022-08-27T02:25:26.867Z,97986.41
2022-08-27T02:27:58.407Z,98009.53
2022-08-27T02:30:25.191Z,97977.75
2022-08-27T02:32:52.343Z,97953.66
2022-08-27T02:35:21.657Z,97963.97
2022-08-27T02:37:48.436Z,97981.03
2022-08-27T02:40:17.396Z,97973.66
2022-08-27T02:42:44.957Z,98019.78
2022-08-27T02:45:12.947Z,98021.09
2022-08-27T02:47:39.516Z,97983.53
2022-08-27T02:50:07.491Z,98020.97
2022-08-27T02:52:34.315Z,98022.13
2022-08-27T02:55:01.574Z,98045.69
2022-08-27T02:57:28.246Z,97997.41
2022-08-27T02:59:55.068Z,97994.00
2022-08-27T03:02:24.573Z,97975.22
2022-08-27T03:04:54.320Z,97974.34
2022-08-27T03:07:20.939Z,97991.53
2022-08-27T03:09:47.589Z,97980.25
2022-08-27T03:12:14.178Z,97968.13
2022-08-27T03:14:40.953Z,97992.84
2022-08-27T03:17:07.550Z,97986.13
2022-08-27T03:19:34.548Z,97976.38
2022-08-27T03:22:01.163Z,97977.88
2022-08-27T03:24:27.888Z,97990.56
2022-08-27T03:26:56.153Z,97961.69
2022-08-27T03:29:22.923Z,97984.56
2022-08-27T03:31:49.501Z,97978.50
2022-08-27T03:34:19.873Z,97987.97
2022-08-27T03:36:46.932Z,97956.84
2022-08-27T03:39:13.774Z,98037.28
2022-08-27T03:41:54.513Z,98008.88
2022-08-27T03:44:24.016Z,98009.44
2022-08-27T03:46:52.075Z,98026.25
2022-08-27T03:49:21.454Z,98024.38
2022-08-27T03:51:52.577Z,98012.78
2022-08-27T03:54:19.870Z,97967.47
2022-08-27T03:56:46.706Z,97992.25
2022-08-27T03:59:13.559Z,97992.16
2022-08-27T04:01:40.167Z,98003.03
2022-08-27T04:04:06.877Z,98002.66
2022-08-27T04:06:34.833Z,97978.16
2022-08-27T04:09:02.304Z,98011.66
2022-08-27T04:11:28.912Z,97934.91
2022-08-27T04:13:56.579Z,98023.88
2022-08-27T04:16:23.237Z,97983.09
2022-08-27T04:18:49.888Z,97990.06
2022-08-27T04:21:16.498Z,97944.56
2022-08-27T04:23:43.784Z,98008.09
2022-08-27T04:26:11.284Z,97993.19
2022-08-27T04:28:39.000Z,97977.16
2022-08-27T04:31:12.855Z,97976.72
2022-08-27T04:33:51.053Z,97965.63
2022-08-27T04:36:18.703Z,97990.09
2022-08-27T04:38:45.766Z,98001.34
2022-08-27T04:41:12.633Z,97970.81
2022-08-27T04:43:39.645Z,97975.09
2022-08-27T04:46:09.889Z,97891.53
2022-08-27T04:48:36.521Z,97954.41
2022-08-27T04:51:05.584Z,97968.22
2022-08-27T04:53:33.397Z,97985.09
2022-08-27T04:56:00.155Z,98014.50
2022-08-27T04:58:26.804Z,98023.50
2022-08-27T05:00:57.108Z,98054.97
2022-08-27T05:03:24.553Z,98011.31
2022-08-27T05:05:52.594Z,98059.81
2022-08-27T05:08:19.343Z,98033.13
2022-08-27T05:10:48.694Z,98065.09
2022-08-27T05:13:16.449Z,97994.19
2022-08-27T05:15:43.087Z,98015.31
2022-08-27T05:18:10.190Z,98016.03
2022-08-27T05:20:48.358Z,98054.22
2022-08-27T05:23:18.421Z,98052.63
2022-08-27T05:25:47.815Z,98002.28
2022-08-27T05:28:16.737Z,98050.13
2022-08-27T05:30:52.296Z,98009.88
2022-08-27T05:33:25.356Z,98054.47
2022-08-27T05:35:54.935Z,98030.22
2022-08-27T05:38:23.486Z,98048.63
2022-08-27T05:40:50.222Z,98023.69
2022-08-27T05:43:18.429Z,98080.41
2022-08-27T05:45:48.518Z,98040.13
2022-08-27T05:48:16.735Z,98089.44
2022-08-27T05:50:44.866Z,98080.66
2022-08-27T05:53:12.966Z,98063.53
2022-08-27T05:55:44.378Z,97994.97
2022-08-27T05:58:13.247Z,98049.00
2022-08-27T06:00:39.858Z,98026.50
2022-08-27T06:03:07.450Z,98046.75
2022-08-27T06:05:34.658Z,98034.31
2022-08-27T06:08:01.291Z,98024.50
2022-08-27T06:10:28.043Z,98053.13
2022-08-27T06:12:56.988Z,98066.47
2022-08-27T06:15:23.928Z,98037.13
2022-08-27T06:17:50.609Z,98064.44
2022-08-27T06:20:17.273Z,98023.78
2022-08-27T06:22:44.125Z,98010.56
2022-08-27T06:25:10.788Z,98019.44
2022-08-27T06:27:37.439Z,98036.75
2022-08-27T06:30:04.615Z,98014.94
2022-08-27T06:32:31.528Z,98054.75
2022-08-27T06:34:58.279Z,98085.09
2022-08-27T06:37:25.009Z,98045.13
2022-08-27T06:39:51.689Z,98109.13
2022-08-27T06:42:18.461Z,97954.63
2022-08-27T06:44:52.962Z,98053.34
2022-08-27T06:47:21.294Z,98042.66
2022-08-27T06:49:47.976Z,98047.88
2022-08-27T06:52:15.486Z,98053.66
2022-08-27T06:54:42.087Z,98035.13
2022-08-27T06:57:08.748Z,98042.56
2022-08-27T06:59:35.536Z,98071.69
2022-08-27T07:02:03.064Z,98058.91
2022-08-27T07:04:32.737Z,98062.06
2022-08-27T07:07:01.101Z,98069.44
2022-08-27T07:09:27.861Z,98064.28
2022-08-27T07:11:54.460Z,98095.34
2022-08-27T07:14:21.083Z,98079.97
2022-08-27T07:16:48.245Z,98056.34
2022-08-27T07:19:16.119Z,98034.19
2022-08-27T07:21:44.209Z,98110.69
2022-08-27T07:24:10.811Z,98083.78
2022-08-27T07:26:40.802Z,98121.94
2022-08-27T07:29:10.090Z,98111.78
2022-08-27T07:31:37.457Z,98040.44
2022-08-27T07:34:05.553Z,98069.38
2022-08-27T07:36:33.680Z,98126.66
2022-08-27T07:39:01.978Z,98111.53
2022-08-27T07:41:33.004Z,98069.16
2022-08-27T07:44:00.722Z,98078.91
2022-08-27T07:46:27.470Z,98085.34
2022-08-27T07:48:55.272Z,98082.81
2022-08-27T07:51:23.699Z,98146.25
2022-08-27T07:53:50.447Z,98120.00
2022-08-27T07:56:17.765Z,98095.16
2022-08-27T07:58:45.338Z,98103.94
2022-08-27T08:01:13.312Z,98096.56
2022-08-27T08:03:41.167Z,98098.13
2022-08-27T08:06:14.364Z,98127.94
2022-08-27T08:08:41.641Z,98129.28
2022-08-27T08:11:12.499Z,98079.97
2022-08-27T08:13:39.766Z,98169.28
2022-08-27T08:16:07.010Z,98178.06
2022-08-27T08:18:34.529Z,98175.91
2022-08-27T08:21:07.140Z,98181.84
2022-08-27T08:23:33.920Z,98081.34
2022-08-27T08:26:01.429Z,98172.25
2022-08-27T08:28:28.870Z,98106.31
2022-08-27T08:30:56.444Z,98129.03
2022-08-27T08:33:23.439Z,98112.59
2022-08-27T08:35:50.197Z,98080.66
2022-08-27T08:38:18.462Z,98089.28
2022-08-27T08:40:50.548Z,98129.94
2022-08-27T08:43:23.951Z,98135.06
2022-08-27T08:45:51.631Z,98153.00
2022-08-27T08:48:22.174Z,98178.63
2022-08-27T08:51:13.021Z,98142.31
2022-08-27T08:54:03.412Z,98185.91
2022-08-27T08:56:54.950Z,98178.63
2022-08-27T08:59:44.461Z,98136.31
2022-08-27T09:02:13.724Z,98131.28
2022-08-27T09:04:42.227Z,98126.75
2022-08-27T09:07:36.053Z,98116.06
2022-08-27T09:10:13.967Z,98166.44
2022-08-27T09:12:40.959Z,98184.91
2022-08-27T09:15:29.679Z,98116.06
2022-08-27T09:18:14.296Z,98144.63
2022-08-27T09:20:46.202Z,98133.03
2022-08-27T09:23:26.491Z,98169.03
2022-08-27T09:25:53.297Z,98119.00
2022-08-27T09:28:24.912Z,98177.56
2022-08-27T09:30:53.057Z,98130.97
2022-08-27T09:33:19.968Z,98135.47
2022-08-27T09:35:46.942Z,98166.66
2022-08-27T09:38:59.807Z,98167.72
2022-08-27T09:41:30.561Z,98169.72
2022-08-27T09:44:11.335Z,98173.31
2022-08-27T09:46:38.174Z,98157.69
2022-08-27T09:49:16.051Z,98163.97
2022-08-27T09:51:45.508Z,98099.03
2022-08-27T09:54:22.364Z,98128.34
2022-08-27T09:56:50.037Z,98096.63
2022-08-27T09:59:21.644Z,98173.22
2022-08-27T10:02:07.714Z,98167.53
2022-08-27T10:04:51.246Z,98083.56
2022-08-27T10:07:37.020Z,98169.06
2022-08-27T10:10:06.662Z,98156.13
2022-08-27T10:12:46.975Z,98094.38
2022-08-27T10:15:14.675Z,98086.47
2022-08-27T10:18:09.034Z,98151.94
2022-08-27T10:20:47.391Z,98101.16
2022-08-27T10:23:26.414Z,98126.66
2022-08-27T10:26:20.012Z,98155.81
2022-08-27T10:29:09.265Z,98096.31
2022-08-27T10:31:45.017Z,98155.63
2022-08-27T10:34:25.062Z,98159.66
2022-08-27T10:36:59.888Z,98161.13
2022-08-27T10:39:46.462Z,98155.44
2022-08-27T10:42:38.169Z,98162.22
2022-08-27T10:45:31.091Z,98170.69
2022-08-27T10:48:15.697Z,98171.97
2022-08-27T10:51:11.343Z,98126.53
2022-08-27T10:53:53.676Z,98169.59
2022-08-27T10:56:35.939Z,98170.94
2022-08-27T10:59:25.383Z,98116.94
2022-08-27T11:02:13.441Z,98149.41
2022-08-27T11:04:45.301Z,98150.53
2022-08-27T11:07:38.013Z,98155.34
2022-08-27T11:10:14.354Z,98100.13
2022-08-27T11:12:45.876Z,98119.44
2022-08-27T11:15:15.575Z,98178.94
2022-08-27T11:17:48.289Z,98179.25
2022-08-27T11:20:28.111Z,98112.84
2022-08-27T11:23:08.892Z,98145.59
2022-08-27T11:25:43.261Z,98183.47
2022-08-27T11:28:11.794Z,98148.94
2022-08-27T11:30:52.777Z,98148.75
2022-08-27T11:33:41.652Z,98133.09
2022-08-27T11:36:29.356Z,98166.84
2022-08-27T11:39:22.910Z,98131.56
2022-08-27T11:42:09.468Z,98195.19
2022-08-27T11:44:42.312Z,98127.44
2022-08-27T11:47:21.855Z,98190.34
2022-08-27T11:49:58.063Z,98190.53
2022-08-27T11:52:41.717Z,98184.22
2022-08-27T11:55:20.495Z,98183.03
2022-08-27T11:57:50.060Z,98133.78
2022-08-27T12:00:30.631Z,98128.22
2022-08-27T12:03:03.436Z,98182.25
2022-08-27T12:05:36.240Z,98182.31
2022-08-27T12:08:33.881Z,98182.75
2022-08-27T12:11:44.638Z,98157.69
2022-08-27T12:14:17.148Z,98183.50
2022-08-27T12:16:56.100Z,98128.34
2022-08-27T12:19:55.069Z,98179.03
2022-08-27T12:22:39.631Z,98173.06
2022-08-27T12:25:06.413Z,98123.38
2022-08-27T12:27:34.846Z,98163.63
2022-08-27T12:30:23.982Z,98183.03
2022-08-27T12:32:51.778Z,98117.31
2022-08-27T12:35:20.185Z,98175.75
2022-08-27T12:37:57.731Z,98165.06
2022-08-27T12:40:27.196Z,98135.75
2022-08-27T12:43:14.490Z,98173.94
2022-08-27T12:45:49.137Z,98171.97
2022-08-27T12:48:22.420Z,98099.94
2022-08-27T12:50:55.998Z,98090.66
2022-08-27T12:53:41.466Z,98167.56
2022-08-27T12:56:28.461Z,98166.09
2022-08-27T12:59:04.363Z,98166.09
2022-08-27T13:01:52.650Z,98166.31
2022-08-27T13:04:30.020Z,98172.91
2022-08-27T13:06:57.310Z,98081.56
2022-08-27T13:09:33.913Z,98118.13
2022-08-27T13:12:03.125Z,98156.25
2022-08-27T13:14:37.951Z,98117.50
2022-08-27T13:17:09.750Z,98170.66
2022-08-27T13:19:44.350Z,98175.50
2022-08-27T13:22:11.131Z,98153.41
2022-08-27T13:24:50.061Z,98168.53
2022-08-27T13:27:27.003Z,98165.75
2022-08-27T13:29:55.636Z,98102.13
2022-08-27T13:32:24.619Z,98041.56
2022-08-27T13:34:51.722Z,98096.22
2022-08-27T13:37:34.722Z,98137.91
2022-08-27T13:40:01.722Z,98083.16
2022-08-27T13:42:28.647Z,98120.22
2022-08-27T13:45:06.135Z,98167.53
2022-08-27T13:47:42.268Z,98128.63
2022-08-27T13:50:22.557Z,98113.94
2022-08-27T13:52:50.473Z,98113.94
2022-08-27T13:55:17.915Z,98129.50
2022-08-27T13:57:47.842Z,98167.47
2022-08-27T14:00:23.388Z,98028.75
2022-08-27T14:02:55.659Z,98100.47
2022-08-27T14:05:23.113Z,98169.06
2022-08-27T14:07:52.816Z,98169.72
2022-08-27T14:10:43.701Z,98171.69
2022-08-27T14:13:16.357Z,98164.81
2022-08-27T14:15:55.202Z,98172.66
2022-08-27T14:18:48.094Z,98167.91
2022-08-27T14:21:13.271Z,98118.47
2022-08-27T14:23:39.923Z,98149.59
2022-08-27T14:26:08.138Z,98116.22
2022-08-27T14:28:34.792Z,98183.38
2022-08-27T14:31:01.650Z,98146.19
2022-08-27T14:33:28.289Z,98054.41
2022-08-27T14:35:55.124Z,98166.75
2022-08-27T14:38:24.209Z,98180.78
2022-08-27T14:40:54.099Z,98124.22
2022-08-27T14:43:21.346Z,98110.97
2022-08-27T14:45:52.177Z,98110.94
2022-08-27T14:48:28.530Z,98092.53
2022-08-27T14:50:56.829Z,98072.16
2022-08-27T14:53:23.702Z,98149.09
2022-08-27T14:55:51.535Z,98109.19
2022-08-27T14:58:19.756Z,98135.34
2022-08-27T15:00:46.935Z,98150.22
2022-08-27T15:03:13.620Z,98125.28
2022-08-27T15:05:40.383Z,98130.13
2022-08-27T15:08:12.694Z,98121.16
2022-08-27T15:10:39.971Z,98140.06
2022-08-27T15:13:06.809Z,98146.81
2022-08-27T15:15:33.623Z,98168.56
2022-08-27T15:18:00.316Z,98171.53
2022-08-27T15:20:27.136Z,98205.00
2022-08-27T15:22:53.758Z,98189.31
2022-08-27T15:25:20.861Z,98220.41
2022-08-27T15:27:47.587Z,98184.13
2022-08-27T15:30:16.285Z,98212.91
2022-08-27T15:32:46.519Z,98212.91
2022-08-27T15:35:16.613Z,98202.69
2022-08-27T15:37:43.820Z,98209.78
2022-08-27T15:40:13.875Z,98210.66
2022-08-27T15:42:41.004Z,98157.59
2022-08-27T15:45:09.134Z,98210.09
2022-08-27T15:47:35.827Z,98122.94
2022-08-27T15:50:02.435Z,98178.75
2022-08-27T15:52:41.082Z,98151.28
2022-08-27T15:55:18.889Z,98196.38
2022-08-27T15:57:45.531Z,98154.59
2022-08-27T16:00:12.636Z,98138.75
2022-08-27T16:02:41.221Z,98172.44
2022-08-27T16:05:07.908Z,98146.41
2022-08-27T16:07:34.490Z,98134.31
2022-08-27T16:10:01.081Z,98153.34
2022-08-27T16:12:27.844Z,98166.84
2022-08-27T16:14:55.530Z,98181.75
2022-08-27T16:17:23.969Z,98211.22
2022-08-27T16:19:50.657Z,98150.81
2022-08-27T16:22:17.283Z,98180.31
2022-08-27T16:24:44.608Z,98012.19
2022-08-27T16:27:11.535Z,98169.84
2022-08-27T16:29:38.347Z,98147.19
2022-08-27T16:32:10.772Z,98204.50
2022-08-27T16:34:37.506Z,98163.69
2022-08-27T16:37:04.025Z,98193.53
2022-08-27T16:39:33.845Z,98148.66
2022-08-27T16:42:03.306Z,98151.31
2022-08-27T16:44:29.997Z,98173.63
2022-08-27T16:46:56.677Z,98146.75
2022-08-27T16:49:23.237Z,98201.41
2022-08-27T16:51:53.214Z,98170.16
2022-08-27T16:54:19.987Z,98151.81
2022-08-27T16:56:46.754Z,98204.50
2022-08-27T16:59:13.332Z,98188.69
2022-08-27T17:01:41.931Z,98154.53
2022-08-27T17:04:14.830Z,98235.81
2022-08-27T17:06:45.599Z,98183.22
2022-08-27T17:09:12.583Z,98204.28
2022-08-27T17:11:41.883Z,98255.13
2022-08-27T17:14:09.838Z,98195.84
2022-08-27T17:16:37.069Z,98157.72
2022-08-27T17:19:05.578Z,98193.66
2022-08-27T17:21:33.919Z,98225.97
2022-08-27T17:24:01.133Z,98190.44
2022-08-27T17:26:29.032Z,98214.03
2022-08-27T17:28:55.868Z,98217.88
2022-08-27T17:31:32.230Z,98230.28
2022-08-27T17:34:00.087Z,98264.81
2022-08-27T17:36:29.134Z,98262.22
2022-08-27T17:38:56.507Z,98261.81
2022-08-27T17:41:43.095Z,98266.16
2022-08-27T17:44:20.012Z,98251.31
2022-08-27T17:46:47.715Z,98243.16
2022-08-27T17:49:14.397Z,98225.22
2022-08-27T17:51:41.397Z,98242.03
2022-08-27T17:54:25.460Z,98254.13
2022-08-27T17:56:52.173Z,98248.72
2022-08-27T17:59:18.817Z,98249.75
2022-08-27T18:01:45.963Z,98253.06
2022-08-27T18:04:12.849Z,98204.53
2022-08-27T18:06:40.023Z,98222.19
2022-08-27T18:09:06.970Z,98162.81
2022-08-27T18:11:37.079Z,98242.19
2022-08-27T18:14:05.039Z,98255.09
2022-08-27T18:16:48.371Z,98287.31
2022-08-27T18:19:24.744Z,97874.97
2022-08-27T18:21:57.065Z,98128.06
2022-08-27T18:24:23.814Z,98298.41
2022-08-27T18:26:54.134Z,97920.13
2022-08-27T18:29:21.094Z,98220.72
2022-08-27T18:31:47.776Z,98158.06
2022-08-27T18:34:20.048Z,98301.41
2022-08-27T18:36:48.144Z,98149.56
2022-08-27T18:39:14.755Z,98057.47
2022-08-27T18:41:42.347Z,98251.13
2022-08-27T18:44:16.956Z,98137.22
2022-08-27T18:46:45.478Z,98138.75
2022-08-27T18:49:12.116Z,98154.78
2022-08-27T18:54:24.285Z,98125.47
2022-08-27T18:56:51.117Z,98164.28
2022-08-27T18:59:20.785Z,98033.47
2022-08-27T19:01:50.653Z,98225.97
2022-08-27T19:04:17.364Z,98256.31
2022-08-27T19:06:44.014Z,98097.91
2022-08-27T19:09:10.830Z,98128.47
2022-08-27T19:11:38.549Z,98292.03
2022-08-27T19:14:05.210Z,98200.75
2022-08-27T19:16:46.096Z,98324.06
2022-08-27T19:19:17.675Z,98281.81
2022-08-27T19:21:49.239Z,98324.72
2022-08-27T19:24:20.182Z,98300.13
2022-08-27T19:26:48.230Z,98127.56
2022-08-27T19:29:18.156Z,98246.88
2022-08-27T19:31:48.905Z,98332.00
2022-08-27T19:34:15.549Z,98229.25
2022-08-27T19:36:43.379Z,98335.31
2022-08-27T19:39:12.493Z,98331.09
2022-08-27T19:41:39.568Z,98180.44
2022-08-27T19:44:06.263Z,98283.72
2022-08-27T19:46:33.485Z,98331.97
2022-08-27T19:49:00.081Z,98293.78
2022-08-27T19:51:26.819Z,98329.22
2022-08-27T19:53:54.050Z,98271.84
2022-08-27T19:56:21.299Z,98309.59
2022-08-27T19:58:48.115Z,98311.16
2022-08-27T20:01:15.108Z,98336.38
2022-08-27T20:03:42.032Z,98244.84
2022-08-27T20:06:09.250Z,98274.88
2022-08-27T20:08:35.928Z,98257.44
2022-08-27T20:11:02.718Z,98318.59
2022-08-27T20:13:33.044Z,98316.09
2022-08-27T20:16:00.349Z,98281.22
2022-08-27T20:18:27.003Z,98281.41
2022-08-27T20:20:53.719Z,98269.41
2022-08-27T20:23:20.805Z,98137.53
2022-08-27T20:25:47.464Z,98291.22
2022-08-27T20:28:37.800Z,98246.13
2022-08-27T20:31:02.389Z,98337.00
2022-08-27T20:33:29.010Z,98232.97
2022-08-27T20:35:58.515Z,98322.50
2022-08-27T20:38:25.750Z,98286.91
2022-08-27T20:40:52.434Z,98305.63
2022-08-27T20:43:19.063Z,98185.19
2022-08-27T20:45:46.239Z,98292.91
2022-08-27T20:48:13.286Z,98189.50
2022-08-27T20:50:42.206Z,98198.47
2022-08-27T20:53:09.087Z,98331.25
2022-08-27T20:55:35.800Z,98345.97
2022-08-27T20:58:11.895Z,98266.56
2022-08-27T21:00:41.457Z,98332.66
2022-08-27T21:03:09.950Z,98345.94
2022-08-27T21:05:38.002Z,98232.03
2022-08-27T21:08:06.536Z,98246.59
2022-08-27T21:10:33.911Z,98340.53
2022-08-27T21:13:05.266Z,98337.72
2022-08-27T21:15:33.489Z,98318.66
2022-08-27T21:18:00.130Z,98317.34
2022-08-27T21:20:26.771Z,98274.19
2022-08-27T21:22:53.479Z,98321.75
2022-08-27T21:25:20.156Z,98301.63
2022-08-27T21:27:46.764Z,98214.03
2022-08-27T21:30:13.744Z,98181.78
2022-08-27T21:32:40.327Z,98278.56
2022-08-27T21:35:07.252Z,98320.03
2022-08-27T21:37:34.559Z,98270.53
2022-08-27T21:40:01.400Z,98312.09
2022-08-27T21:42:27.993Z,98291.41
2022-08-27T21:44:54.919Z,98188.25
2022-08-27T21:47:21.459Z,98234.94
2022-08-27T21:49:48.295Z,98279.97
2022-08-27T21:52:15.401Z,98266.50
2022-08-27T21:54:42.268Z,98234.41
2022-08-27T21:57:10.717Z,98314.81
2022-08-27T21:59:44.702Z,98261.13
2022-08-27T22:02:35.895Z,98312.34
2022-08-27T22:04:58.388Z,98273.78
2022-08-27T22:07:24.927Z,98334.81
2022-08-27T22:09:51.490Z,98337.53
2022-08-27T22:12:18.101Z,98336.31
2022-08-27T22:14:44.849Z,98293.28
2022-08-27T22:17:11.465Z,98309.41
2022-08-27T22:19:38.133Z,98275.31
2022-08-27T22:22:04.666Z,98315.72
2022-08-27T22:24:31.326Z,98283.41
2022-08-27T22:26:57.959Z,98315.53
2022-08-27T22:29:24.564Z,98283.25
2022-08-27T22:31:51.146Z,98245.47
2022-08-27T22:34:18.151Z,98269.34
2022-08-27T22:36:44.759Z,98267.66
2022-08-27T22:39:11.332Z,98254.22
2022-08-27T22:41:38.307Z,98300.09
2022-08-27T22:44:08.468Z,98280.91
2022-08-27T22:46:35.098Z,98317.13
2022-08-27T22:49:01.880Z,98311.66
2022-08-27T22:51:28.422Z,98236.06
2022-08-27T22:53:55.103Z,98270.13
2022-08-27T22:56:21.698Z,98276.13
2022-08-27T22:58:48.470Z,98308.22
2022-08-27T23:01:21.036Z,98323.63
2022-08-27T23:03:48.795Z,98281.13
2022-08-27T23:06:15.575Z,98249.75
2022-08-27T23:08:42.228Z,98286.38
2022-08-27T23:11:08.864Z,98285.00
2022-08-27T23:13:35.652Z,98266.84
2022-08-27T23:16:02.751Z,98292.91
2022-08-27T23:18:29.754Z,98271.50
2022-08-27T23:20:56.583Z,98289.06
2022-08-27T23:23:24.427Z,98270.38
2022-08-27T23:25:56.544Z,98279.41
2022-08-27T23:28:23.285Z,98287.53
2022-08-27T23:30:50.259Z,98264.50
2022-08-27T23:33:17.208Z,98304.72
2022-08-27T23:35:43.896Z,98249.75
2022-08-27T23:38:10.865Z,98305.25
2022-08-27T23:40:37.797Z,98248.13
2022-08-27T23:43:04.451Z,98276.25
2022-08-27T23:45:31.138Z,98287.84
2022-08-27T23:47:57.740Z,98312.41
2022-08-27T23:50:33.678Z,98307.25
2022-08-27T23:53:02.719Z,98269.00
2022-08-27T23:55:29.430Z,98304.22
2022-08-27T23:57:56.081Z,98291.81
